createdAt,value
2018-10-07T00:01:09.617Z,12.29
2018-10-07T00:03:37.797Z,12.29
2018-10-07T00:06:06.117Z,12.23
2018-10-07T00:08:34.450Z,12.20
2018-10-07T00:11:02.634Z,12.17
2018-10-07T00:13:30.800Z,12.15
2018-10-07T00:15:59.035Z,12.26
2018-10-07T00:18:27.176Z,12.21
2018-10-07T00:20:55.469Z,12.17
2018-10-07T00:23:23.672Z,12.17
2018-10-07T00:25:51.921Z,12.16
2018-10-07T00:28:20.093Z,12.16
2018-10-07T00:30:48.337Z,12.14
2018-10-07T00:33:16.490Z,12.09
2018-10-07T00:35:44.721Z,12.09
2018-10-07T00:38:12.897Z,12.12
2018-10-07T00:40:41.234Z,12.06
2018-10-07T00:43:09.416Z,12.04
2018-10-07T00:45:37.605Z,12.02
2018-10-07T00:48:06.058Z,12.03
2018-10-07T00:50:34.265Z,12.02
2018-10-07T00:53:02.428Z,12.00
2018-10-07T00:55:30.599Z,11.97
2018-10-07T00:57:58.792Z,11.96
2018-10-07T01:00:27.118Z,11.97
2018-10-07T01:02:55.276Z,11.97
2018-10-07T01:05:23.679Z,11.98
2018-10-07T01:07:51.930Z,11.97
2018-10-07T01:10:20.090Z,11.99
2018-10-07T01:12:48.253Z,11.98
2018-10-07T01:15:16.475Z,12.00
2018-10-07T01:17:44.665Z,12.00
2018-10-07T01:20:12.849Z,12.02
2018-10-07T01:22:41.525Z,12.03
2018-10-07T01:25:09.689Z,12.08
2018-10-07T01:27:37.944Z,12.12
2018-10-07T01:30:06.466Z,12.17
2018-10-07T01:32:34.652Z,12.18
2018-10-07T01:35:02.840Z,12.17
2018-10-07T01:37:31.033Z,12.17
2018-10-07T01:39:59.186Z,12.18
2018-10-07T01:42:27.500Z,12.17
2018-10-07T01:44:55.734Z,12.17
2018-10-07T01:47:24.066Z,12.14
2018-10-07T01:49:52.272Z,12.13
2018-10-07T01:52:20.522Z,12.11
2018-10-07T01:54:48.748Z,12.10
2018-10-07T01:57:16.953Z,12.06
2018-10-07T01:59:45.234Z,12.05
2018-10-07T02:02:13.413Z,12.09
2018-10-07T02:04:41.642Z,12.06
2018-10-07T02:07:09.815Z,12.06
2018-10-07T02:09:37.983Z,12.08
2018-10-07T02:12:06.143Z,12.10
2018-10-07T02:14:34.357Z,12.08
2018-10-07T02:17:02.631Z,12.08
2018-10-07T02:19:30.955Z,12.06
2018-10-07T02:21:59.172Z,12.05
2018-10-07T02:24:27.341Z,12.02
2018-10-07T02:26:55.537Z,12.02
2018-10-07T02:29:23.709Z,12.00
2018-10-07T02:31:51.925Z,12.07
2018-10-07T02:34:20.256Z,12.05
2018-10-07T02:36:48.498Z,12.03
2018-10-07T02:39:16.670Z,12.00
2018-10-07T02:41:44.879Z,11.99
2018-10-07T02:44:13.049Z,12.00
2018-10-07T02:46:41.208Z,12.01
2018-10-07T02:49:09.392Z,12.07
2018-10-07T02:51:37.737Z,12.01
2018-10-07T02:54:05.946Z,11.98
2018-10-07T02:56:34.122Z,11.94
2018-10-07T02:59:02.317Z,11.94
2018-10-07T03:01:30.617Z,11.92
2018-10-07T03:03:58.735Z,11.90
2018-10-07T03:06:27.174Z,11.88
2018-10-07T03:08:55.432Z,11.91
2018-10-07T03:11:23.677Z,11.88
2018-10-07T03:13:51.859Z,11.87
2018-10-07T03:16:20.117Z,11.84
2018-10-07T03:18:48.282Z,11.89
2018-10-07T03:21:16.485Z,11.84
2018-10-07T03:23:44.640Z,11.82
2018-10-07T03:26:12.821Z,11.82
2018-10-07T03:28:41.009Z,11.77
2018-10-07T03:31:09.165Z,11.74
2018-10-07T03:33:37.345Z,11.74
2018-10-07T03:36:05.532Z,11.78
2018-10-07T03:38:33.689Z,11.88
2018-10-07T03:41:01.873Z,11.85
2018-10-07T03:43:30.045Z,11.83
2018-10-07T03:45:58.203Z,11.88
2018-10-07T03:48:26.385Z,11.85
2018-10-07T03:50:54.550Z,11.95
2018-10-07T03:53:22.701Z,11.94
2018-10-07T03:55:50.856Z,11.92
2018-10-07T03:58:19.033Z,11.92
2018-10-07T04:00:47.264Z,11.90
2018-10-07T04:03:15.490Z,11.93
2018-10-07T04:05:43.864Z,11.98
2018-10-07T04:08:12.095Z,11.96
2018-10-07T04:10:40.420Z,11.96
2018-10-07T04:13:08.788Z,12.05
2018-10-07T04:15:37.022Z,12.03
2018-10-07T04:18:05.504Z,12.00
2018-10-07T04:20:33.705Z,12.04
2018-10-07T04:23:01.943Z,12.10
2018-10-07T04:25:30.100Z,12.14
2018-10-07T04:27:58.312Z,12.14
2018-10-07T04:30:26.908Z,12.27
2018-10-07T04:32:55.369Z,12.19
2018-10-07T04:35:23.548Z,12.15
2018-10-07T04:37:52.119Z,12.25
2018-10-07T04:40:20.301Z,12.28
2018-10-07T04:42:48.489Z,12.21
2018-10-07T04:45:16.737Z,12.24
2018-10-07T04:47:44.920Z,12.16
2018-10-07T04:50:13.199Z,12.12
2018-10-07T04:52:41.369Z,12.20
2018-10-07T04:55:09.541Z,12.19
2018-10-07T04:57:37.740Z,12.18
2018-10-07T05:00:05.983Z,12.18
2018-10-07T05:02:34.165Z,12.24
2018-10-07T05:05:02.341Z,12.27
2018-10-07T05:07:30.658Z,12.35
2018-10-07T05:10:10.023Z,12.33
2018-10-07T05:12:38.269Z,12.29
2018-10-07T05:15:07.538Z,12.32
2018-10-07T05:17:36.506Z,12.32
2018-10-07T05:20:04.883Z,12.31
2018-10-07T05:22:33.049Z,12.33
2018-10-07T05:25:01.269Z,12.34
2018-10-07T05:27:29.530Z,12.34
2018-10-07T05:29:57.701Z,12.29
2018-10-07T05:32:25.910Z,12.34
2018-10-07T05:34:54.066Z,12.30
2018-10-07T05:37:22.293Z,12.30
2018-10-07T05:39:50.529Z,12.35
2018-10-07T05:42:18.691Z,12.33
2018-10-07T05:44:46.893Z,12.35
2018-10-07T05:47:15.017Z,12.39
2018-10-07T05:49:43.185Z,12.40
2018-10-07T05:52:11.369Z,12.39
2018-10-07T05:54:39.558Z,12.44
2018-10-07T05:57:07.725Z,12.41
2018-10-07T05:59:35.901Z,12.42
2018-10-07T06:02:06.599Z,12.45
2018-10-07T06:04:49.705Z,12.48
2018-10-07T06:07:18.060Z,12.51
2018-10-07T06:09:46.336Z,12.58
2018-10-07T06:12:14.501Z,12.64
2018-10-07T06:14:54.061Z,12.68
2018-10-07T06:17:22.143Z,12.69
2018-10-07T06:19:50.304Z,12.72
2018-10-07T06:22:18.550Z,12.75
2018-10-07T06:24:46.705Z,12.80
2018-10-07T06:27:14.914Z,12.89
2018-10-07T06:29:43.111Z,12.90
2018-10-07T06:32:11.241Z,12.93
2018-10-07T06:34:39.409Z,13.01
2018-10-07T06:37:07.604Z,13.10
2018-10-07T06:39:35.773Z,13.17
2018-10-07T06:42:04.064Z,13.28
2018-10-07T06:44:32.285Z,13.34
2018-10-07T06:47:00.585Z,13.46
2018-10-07T06:49:28.800Z,13.60
2018-10-07T06:51:57.057Z,13.66
2018-10-07T06:54:25.213Z,13.76
2018-10-07T06:56:53.396Z,13.89
2018-10-07T06:59:21.549Z,13.89
2018-10-07T07:01:49.736Z,13.95
2018-10-07T07:04:18.069Z,14.07
2018-10-07T07:06:46.264Z,14.10
2018-10-07T07:09:14.460Z,14.10
2018-10-07T07:11:42.844Z,14.26
2018-10-07T07:14:11.048Z,14.35
2018-10-07T07:16:39.208Z,14.40
2018-10-07T07:19:07.467Z,14.46
2018-10-07T07:21:35.662Z,14.44
2018-10-07T07:24:03.848Z,14.45
2018-10-07T07:26:32.017Z,14.51
2018-10-07T07:29:00.282Z,14.45
2018-10-07T07:31:28.447Z,14.41
2018-10-07T07:33:56.707Z,14.55
2018-10-07T07:36:25.335Z,14.55
2018-10-07T07:38:53.536Z,14.56
2018-10-07T07:41:21.755Z,14.65
2018-10-07T07:43:50.045Z,14.71
2018-10-07T07:46:18.246Z,14.78
2018-10-07T07:48:46.882Z,14.93
2018-10-07T07:51:15.201Z,15.01
2018-10-07T07:53:43.394Z,15.34
2018-10-07T07:56:11.585Z,15.38
2018-10-07T07:58:39.817Z,15.50
2018-10-07T08:01:08.122Z,15.67
2018-10-07T08:03:36.302Z,15.90
2018-10-07T08:06:04.534Z,16.07
2018-10-07T08:08:32.701Z,16.09
2018-10-07T08:11:00.944Z,15.97
2018-10-07T08:13:29.135Z,16.13
2018-10-07T08:15:57.413Z,16.32
2018-10-07T08:18:25.593Z,16.40
2018-10-07T08:20:53.888Z,16.44
2018-10-07T08:23:22.087Z,16.27
2018-10-07T08:25:50.238Z,16.44
2018-10-07T08:28:18.428Z,16.62
2018-10-07T08:30:46.660Z,16.47
2018-10-07T08:33:14.853Z,16.60
2018-10-07T08:35:43.100Z,16.60
2018-10-07T08:38:11.302Z,16.82
2018-10-07T08:40:39.602Z,16.74
2018-10-07T08:43:07.858Z,16.50
2018-10-07T08:45:36.070Z,16.56
2018-10-07T08:48:04.285Z,16.62
2018-10-07T08:50:32.505Z,16.63
2018-10-07T08:53:01.276Z,16.57
2018-10-07T08:55:29.573Z,16.45
2018-10-07T08:57:57.761Z,16.36
2018-10-07T09:00:25.964Z,16.41
2018-10-07T09:02:54.209Z,16.46
2018-10-07T09:05:22.395Z,16.44
2018-10-07T09:07:50.605Z,16.49
2018-10-07T09:10:18.775Z,16.55
2018-10-07T09:12:47.035Z,16.64
2018-10-07T09:15:15.205Z,16.66
2018-10-07T09:17:43.401Z,16.70
2018-10-07T09:20:11.598Z,16.63
2018-10-07T09:22:39.880Z,16.57
2018-10-07T09:25:08.036Z,16.47
2018-10-07T09:27:36.374Z,16.54
2018-10-07T09:30:04.804Z,16.60
2018-10-07T09:32:33.070Z,16.60
2018-10-07T09:35:01.165Z,16.77
2018-10-07T09:37:29.398Z,16.70
2018-10-07T09:39:57.591Z,16.77
2018-10-07T09:42:25.755Z,16.83
2018-10-07T09:44:53.962Z,16.79
2018-10-07T09:47:22.200Z,16.88
2018-10-07T09:49:50.412Z,16.93
2018-10-07T09:52:18.653Z,16.95
2018-10-07T09:54:46.835Z,16.89
2018-10-07T09:57:15.025Z,17.05
2018-10-07T09:59:43.189Z,17.11
2018-10-07T10:02:11.445Z,17.23
2018-10-07T10:04:40.088Z,17.18
2018-10-07T10:07:08.274Z,17.19
2018-10-07T10:09:36.497Z,17.16
2018-10-07T10:12:04.769Z,17.27
2018-10-07T10:14:32.945Z,17.53
2018-10-07T10:17:02.803Z,17.55
2018-10-07T10:19:42.881Z,17.73
2018-10-07T10:22:19.826Z,17.81
2018-10-07T10:24:52.724Z,17.96
2018-10-07T10:27:46.184Z,18.06
2018-10-07T10:30:49.797Z,18.19
2018-10-07T10:33:21.537Z,18.31
2018-10-07T10:35:51.219Z,18.56
2018-10-07T10:38:26.296Z,18.68
2018-10-07T10:41:03.540Z,18.91
2018-10-07T10:43:45.098Z,19.17
2018-10-07T10:48:27.449Z,19.20
2018-10-07T10:51:33.853Z,19.50
2018-10-07T10:54:10.796Z,19.75
2018-10-07T10:56:48.325Z,19.77
2018-10-07T11:00:23.457Z,20.01
2018-10-07T11:05:12.051Z,20.43
2018-10-07T11:08:18.821Z,20.96
2018-10-07T11:10:58.377Z,21.67
2018-10-07T11:15:39.479Z,22.46
2018-10-07T11:18:15.092Z,24.33
2018-10-07T11:21:33.841Z,25.58
2018-10-07T11:24:09.773Z,24.66
2018-10-07T11:26:45.661Z,25.08
2018-10-07T11:31:26.236Z,25.51
2018-10-07T11:34:02.009Z,25.65
2018-10-07T11:38:47.948Z,24.54
2018-10-07T11:41:52.706Z,23.97
2018-10-07T11:45:27.344Z,23.50
2018-10-07T11:48:39.748Z,22.68
2018-10-07T11:52:19.930Z,22.44
2018-10-07T11:54:55.674Z,21.63
2018-10-07T11:57:23.849Z,21.62
2018-10-07T11:59:52.397Z,21.03
2018-10-07T12:02:20.658Z,21.05
2018-10-07T12:04:48.827Z,20.94
2018-10-07T12:07:17.369Z,21.26
2018-10-07T12:09:45.918Z,21.23
2018-10-07T12:12:14.730Z,21.75
2018-10-07T12:14:43.001Z,21.92
2018-10-07T12:17:11.617Z,22.20
2018-10-07T12:19:40.903Z,22.23
2018-10-07T12:22:09.207Z,22.46
2018-10-07T12:24:38.152Z,22.68
2018-10-07T12:27:06.701Z,22.98
2018-10-07T12:29:34.970Z,23.39
2018-10-07T12:32:03.260Z,23.37
2018-10-07T12:34:31.420Z,23.47
2018-10-07T12:36:59.588Z,23.26
2018-10-07T12:39:27.814Z,23.34
2018-10-07T12:41:56.071Z,23.56
2018-10-07T12:44:24.866Z,24.40
2018-10-07T12:46:53.166Z,24.53
2018-10-07T12:49:21.434Z,24.72
2018-10-07T12:51:49.620Z,24.70
2018-10-07T12:54:17.895Z,25.04
2018-10-07T12:56:46.110Z,24.44
2018-10-07T12:59:14.286Z,25.04
2018-10-07T13:01:42.478Z,25.21
2018-10-07T13:04:10.861Z,25.24
2018-10-07T13:06:39.064Z,25.08
2018-10-07T13:09:09.861Z,25.23
2018-10-07T13:11:38.393Z,24.49
2018-10-07T13:14:06.605Z,24.15
2018-10-07T13:16:35.981Z,24.23
2018-10-07T13:19:04.213Z,24.06
2018-10-07T13:21:32.829Z,23.78
2018-10-07T13:24:01.012Z,23.59
2018-10-07T13:26:29.561Z,23.23
2018-10-07T13:28:57.755Z,23.38
2018-10-07T13:31:25.977Z,23.24
2018-10-07T13:33:54.233Z,22.69
2018-10-07T13:36:22.410Z,22.58
2018-10-07T13:38:50.596Z,22.87
2018-10-07T13:41:19.024Z,22.82
2018-10-07T13:43:47.240Z,22.62
2018-10-07T13:46:15.414Z,22.65
2018-10-07T13:48:44.502Z,22.31
2018-10-07T13:51:12.804Z,22.02
2018-10-07T13:53:41.102Z,22.28
2018-10-07T13:56:09.872Z,22.13
2018-10-07T13:58:38.050Z,21.60
2018-10-07T14:01:06.323Z,21.41
2018-10-07T14:03:34.821Z,21.22
2018-10-07T14:06:02.955Z,21.42
2018-10-07T14:08:31.205Z,21.11
2018-10-07T14:10:59.361Z,20.88
2018-10-07T14:13:28.059Z,20.83
2018-10-07T14:15:56.227Z,20.82
2018-10-07T14:18:24.397Z,20.63
2018-10-07T14:20:52.713Z,20.56
2018-10-07T14:23:20.957Z,20.43
2018-10-07T14:25:49.122Z,20.46
2018-10-07T14:28:17.340Z,20.25
2018-10-07T14:30:45.520Z,20.06
2018-10-07T14:33:13.690Z,20.02
2018-10-07T14:35:41.863Z,20.16
2018-10-07T14:40:37.280Z,20.00
2018-10-07T14:43:05.674Z,20.07
2018-10-07T14:45:33.946Z,20.16
2018-10-07T14:48:02.434Z,20.28
2018-10-07T14:50:30.704Z,20.25
2018-10-07T14:52:58.886Z,20.32
2018-10-07T14:55:27.152Z,20.27
2018-10-07T14:57:55.448Z,20.22
2018-10-07T15:00:23.645Z,20.14
2018-10-07T15:02:51.810Z,19.96
2018-10-07T15:05:20.053Z,19.99
2018-10-07T15:07:48.237Z,19.96
2018-10-07T15:10:16.413Z,19.92
2018-10-07T15:12:44.669Z,20.06
2018-10-07T15:15:12.881Z,20.25
2018-10-07T15:17:41.125Z,20.23
2018-10-07T15:20:09.321Z,20.12
2018-10-07T15:22:37.589Z,20.18
2018-10-07T15:25:05.907Z,20.17
2018-10-07T15:27:34.129Z,20.06
2018-10-07T15:30:02.306Z,19.74
2018-10-07T15:32:30.569Z,19.92
2018-10-07T15:34:58.730Z,19.78
2018-10-07T15:37:26.986Z,19.74
2018-10-07T15:39:55.176Z,19.89
2018-10-07T15:42:23.368Z,19.63
2018-10-07T15:44:51.610Z,19.37
2018-10-07T15:47:19.776Z,19.14
2018-10-07T15:49:47.988Z,18.99
2018-10-07T15:52:16.181Z,18.79
2018-10-07T15:54:44.341Z,18.62
2018-10-07T15:57:12.500Z,18.53
2018-10-07T15:59:40.730Z,18.45
2018-10-07T16:02:08.913Z,18.34
2018-10-07T16:04:37.082Z,18.21
2018-10-07T16:07:05.333Z,18.03
2018-10-07T16:09:33.509Z,17.87
2018-10-07T16:12:01.797Z,17.86
2018-10-07T16:14:30.020Z,17.71
2018-10-07T16:16:58.214Z,17.59
2018-10-07T16:19:26.679Z,17.56
2018-10-07T16:21:54.889Z,17.39
2018-10-07T16:24:23.097Z,17.13
2018-10-07T16:26:51.241Z,16.97
2018-10-07T16:29:19.433Z,16.68
2018-10-07T16:31:47.597Z,16.46
2018-10-07T16:34:15.787Z,16.39
2018-10-07T16:36:44.185Z,16.24
2018-10-07T16:39:12.367Z,16.16
2018-10-07T16:41:40.611Z,16.06
2018-10-07T16:44:08.832Z,15.90
2018-10-07T16:46:37.145Z,15.92
2018-10-07T16:49:05.325Z,15.90
2018-10-07T16:51:33.553Z,16.10
2018-10-07T16:54:01.728Z,16.07
2018-10-07T16:56:30.168Z,16.05
2018-10-07T16:58:58.536Z,16.03
2018-10-07T17:01:26.795Z,15.99
2018-10-07T17:03:54.985Z,15.92
2018-10-07T17:06:23.208Z,15.83
2018-10-07T17:08:51.431Z,15.73
2018-10-07T17:11:19.618Z,15.63
2018-10-07T17:13:48.150Z,15.56
2018-10-07T17:16:16.331Z,15.46
2018-10-07T17:18:45.748Z,15.39
2018-10-07T17:21:13.946Z,15.34
2018-10-07T17:23:42.154Z,15.28
2018-10-07T17:26:10.365Z,15.23
2018-10-07T17:28:38.571Z,15.20
2018-10-07T17:31:06.788Z,15.18
2018-10-07T17:33:34.949Z,15.15
2018-10-07T17:36:03.323Z,15.15
2018-10-07T17:38:31.501Z,15.14
2018-10-07T17:41:00.005Z,15.14
2018-10-07T17:43:28.200Z,15.14
2018-10-07T17:45:56.388Z,15.14
2018-10-07T17:48:24.676Z,15.18
2018-10-07T17:50:52.765Z,15.16
2018-10-07T17:53:21.177Z,15.05
2018-10-07T17:55:49.364Z,14.90
2018-10-07T17:58:17.552Z,14.79
2018-10-07T18:00:45.731Z,14.72
2018-10-07T18:03:13.972Z,14.66
2018-10-07T18:05:42.098Z,14.57
2018-10-07T18:08:10.440Z,14.48
2018-10-07T18:10:38.610Z,14.41
2018-10-07T18:13:06.796Z,14.32
2018-10-07T18:15:35.106Z,14.24
2018-10-07T18:18:03.368Z,14.14
2018-10-07T18:20:31.570Z,14.16
2018-10-07T18:22:59.791Z,14.10
2018-10-07T18:25:28.000Z,14.04
2018-10-07T18:27:56.413Z,14.04
2018-10-07T18:30:24.587Z,13.96
2018-10-07T18:32:54.281Z,13.90
2018-10-07T18:35:22.531Z,13.87
2018-10-07T18:37:50.755Z,13.84
2018-10-07T18:40:19.061Z,13.77
2018-10-07T18:42:48.883Z,13.74
2018-10-07T18:45:17.169Z,13.75
2018-10-07T18:47:45.457Z,13.71
2018-10-07T18:50:13.983Z,13.73
2018-10-07T18:52:42.195Z,13.70
2018-10-07T18:55:10.427Z,13.67
2018-10-07T18:57:38.633Z,13.75
2018-10-07T19:00:08.489Z,13.76
2018-10-07T19:02:36.741Z,13.79
2018-10-07T19:05:05.466Z,13.74
2018-10-07T19:07:33.660Z,13.65
2018-10-07T19:10:01.989Z,13.60
2018-10-07T19:12:30.262Z,13.57
2018-10-07T19:14:58.544Z,13.53
2018-10-07T19:17:26.718Z,13.51
2018-10-07T19:19:55.072Z,13.48
2018-10-07T19:22:23.228Z,13.40
2018-10-07T19:24:51.428Z,13.37
2018-10-07T19:27:19.634Z,13.35
2018-10-07T19:29:47.939Z,13.49
2018-10-07T19:32:16.033Z,13.64
2018-10-07T19:34:44.246Z,13.62
2018-10-07T19:37:12.641Z,13.48
2018-10-07T19:39:40.664Z,13.38
2018-10-07T19:42:10.484Z,13.31
2018-10-07T19:44:39.772Z,13.22
2018-10-07T19:47:13.245Z,13.15
2018-10-07T19:49:42.277Z,13.09
2018-10-07T19:52:11.228Z,13.02
2018-10-07T19:54:40.549Z,13.00
2018-10-07T19:57:09.623Z,12.93
2018-10-07T19:59:38.632Z,12.89
2018-10-07T20:02:08.162Z,12.88
2018-10-07T20:04:37.301Z,12.95
2018-10-07T20:07:06.331Z,13.02
2018-10-07T20:09:35.316Z,13.05
2018-10-07T20:12:04.160Z,13.10
2018-10-07T20:14:33.252Z,13.18
2018-10-07T20:17:02.676Z,13.19
2018-10-07T20:19:31.929Z,13.28
2018-10-07T20:22:00.924Z,13.14
2018-10-07T20:24:29.908Z,13.05
2018-10-07T20:26:58.822Z,13.13
2018-10-07T20:29:27.468Z,13.04
2018-10-07T20:31:56.081Z,13.12
2018-10-07T20:34:25.104Z,13.27
2018-10-07T20:36:54.055Z,13.13
2018-10-07T20:39:22.573Z,12.92
2018-10-07T20:41:51.409Z,12.75
2018-10-07T20:44:20.118Z,12.81
2018-10-07T20:46:48.893Z,12.62
2018-10-07T20:49:17.603Z,12.52
2018-10-07T20:51:46.576Z,12.44
2018-10-07T20:54:15.421Z,12.39
2018-10-07T20:56:44.347Z,12.42
2018-10-07T20:59:13.337Z,12.44
2018-10-07T21:01:42.151Z,12.45
2018-10-07T21:04:11.075Z,12.45
2018-10-07T21:06:40.071Z,12.45
2018-10-07T21:09:09.965Z,12.51
2018-10-07T21:11:38.412Z,12.52
2018-10-07T21:14:06.789Z,12.51
2018-10-07T21:16:35.063Z,12.49
2018-10-07T21:19:03.306Z,12.48
2018-10-07T21:21:31.820Z,12.52
2018-10-07T21:24:00.057Z,12.56
2018-10-07T21:26:28.188Z,12.49
2018-10-07T21:28:56.484Z,12.36
2018-10-07T21:31:24.644Z,12.32
2018-10-07T21:33:52.816Z,12.27
2018-10-07T21:36:20.998Z,12.16
2018-10-07T21:38:49.174Z,12.14
2018-10-07T21:41:17.339Z,12.15
2018-10-07T21:43:45.565Z,12.19
2018-10-07T21:46:13.733Z,12.11
2018-10-07T21:48:43.088Z,12.03
2018-10-07T21:51:11.313Z,11.91
2018-10-07T21:53:39.514Z,11.81
2018-10-07T21:56:07.817Z,11.72
2018-10-07T21:58:35.986Z,11.65
2018-10-07T22:01:04.225Z,11.60
2018-10-07T22:03:32.397Z,11.53
2018-10-07T22:06:00.581Z,11.49
2018-10-07T22:08:28.749Z,11.45
2018-10-07T22:10:56.920Z,11.45
2018-10-07T22:13:25.416Z,11.47
2018-10-07T22:15:53.673Z,11.50
2018-10-07T22:18:21.848Z,11.49
2018-10-07T22:20:50.040Z,11.45
2018-10-07T22:23:18.200Z,11.42
2018-10-07T22:25:46.364Z,11.35
2018-10-07T22:28:14.568Z,11.18
2018-10-07T22:30:42.738Z,11.10
2018-10-07T22:33:10.906Z,11.15
2018-10-07T22:35:39.101Z,11.00
2018-10-07T22:38:07.322Z,10.90
2018-10-07T22:40:35.502Z,10.84
2018-10-07T22:43:03.682Z,10.75
2018-10-07T22:45:31.845Z,10.74
2018-10-07T22:48:00.020Z,10.75
2018-10-07T22:50:28.194Z,10.67
2018-10-07T22:52:56.365Z,10.60
2018-10-07T22:55:24.579Z,10.56
2018-10-07T22:57:52.853Z,10.52
2018-10-07T23:00:21.367Z,10.50
2018-10-07T23:02:49.533Z,10.53
2018-10-07T23:05:18.270Z,10.57
2018-10-07T23:07:46.458Z,10.53
2018-10-07T23:10:15.460Z,10.48
2018-10-07T23:12:43.716Z,10.43
2018-10-07T23:15:12.023Z,10.42
2018-10-07T23:17:40.277Z,10.40
2018-10-07T23:20:08.465Z,10.42
2018-10-07T23:22:36.829Z,10.44
2018-10-07T23:25:05.009Z,10.47
2018-10-07T23:27:33.188Z,10.54
2018-10-07T23:30:01.686Z,10.61
2018-10-07T23:32:29.879Z,10.73
2018-10-07T23:34:58.333Z,10.79
2018-10-07T23:37:26.709Z,10.82
2018-10-07T23:39:55.100Z,10.81
2018-10-07T23:42:23.512Z,10.81
2018-10-07T23:44:51.688Z,10.85
2018-10-07T23:47:19.865Z,10.94
2018-10-07T23:49:48.055Z,10.96
2018-10-07T23:52:16.253Z,11.01
2018-10-07T23:54:44.438Z,11.07
2018-10-07T23:57:12.730Z,11.13
2018-10-07T23:59:40.909Z,11.18
